Airfield :
LOGIN :

Register | Disclaimer

   EN    FR    IT 

 










Legend :    VFR   Marginal VFR   IFR   Intensive IFR   Very Intensive IFR
Visi :
Ceiling :
>= 8 km
>= 3000ft
5 to 8 km
1000 to 3000 ft
1500m to 5 km
500 to 1000 ft
800 to 1500m
200 to 500 ft
< 800m
< 200 ft
Symbols :   Thunderstorms  Fog  Heavy snow  Heavy precipitations  Wind > 20 kt
SIGMETs :     Misc.  Thunderstorms  Icing  Turbulence  Mountain Waves  Volcanic Ashes






- Airport Elevation : 18 ft
- IATA code : AJA


LFKJ - Ajaccio

CURRENT METAR :
  • 231730Z AUTO 07003KT CAVOK 18/13 Q1019 NOSIG

EXPIRED METARs :
  • 231700Z AUTO VRB02KT CAVOK 19/13 Q1018 NOSIG
  • 231630Z AUTO 14003KT CAVOK 20/13 Q1018 NOSIG
  • 231600Z AUTO 20005KT CAVOK 22/15 Q1018 TEMPO 30010KT
  • 231530Z AUTO 18004KT 140V200 CAVOK 23/14 Q1018 TEMPO 30010KT
  • 231500Z AUTO 19004KT CAVOK 22/14 Q1018 TEMPO 30010KT

TAF TAF LFKJ
Valid from the 23 at 15:00 until the 24 at 15:00 UTC


231400Z 2315/2415 21010KT CAVOK
TEMPO 2315/2317 30010KT
BECMG 2317/2319 04005KT
BECMG 2408/2410 21010KT
TEMPO 2412/2415 FEW040TCU
ATIS : +33 4 95 23 59 85



MET'MAP, your aeronautical weather chart ! - Copyright ORBIFLY December 2007 - Disclaimer

ORBIFLY MET'MAP TEAM :

Programming & Development : Alexandra Zaïnal
Concept & original design : Baudouin d'Aumeries
Assistance for programming : Marc-Olivier Méhu
Technical & hardware support : Manuel Goepfert

Contact : metmap@orbifly.com




SOURCES & CREDITS :

   NOAA